Portada
METAR-TAF:

METAR-TAF

Aeropuertos :

Jerez de la Frontera, España

Aeropuerto de Jerez

latitud: 36-45N, longitud: 006-04W, altitud: 27 m

Observación

El informe se hizo hace 17 minutos, a las 09:00 UTC
Viento 1 kt con dirección variable
Temperatura 18°C
Humedad 64%
Presión 1015 hPa
Visibilidad 10 km o más
Escasas nubes a una altura de 4000 ft

METAR: LEJR 240900Z VRB01KT 9999 FEW040 18/11 Q1015

Hora: 11:17 (09:17 UTC)

Pronóstico

El informe se hizo hace 4 horas y 17 minutos, a las 05:00 UTC
Pronóstico válido del 24 a las 06 UTC al 25 a las 06 UTC
Viento 6 kt del sur-suroeste
Visibilidad 10 km o más
Escasas nubes a una altura de 4000 ft
Temporalmente
del 25 a las 00 UTC al 25 a las 06 UTC
Cielo nuboso a una altura de 600 ft

TAF: LEJR 240500Z 2406/2506 21006KT 9999 FEW040 TX27/2415Z TN11/2406Z TEMPO 2500/2506 BKN006

Observaciones y pronósticos meteorológicos de más de 4000 aeropuertos (mensajes METAR y TAF).

Los puntos amarillos y rojos representan las estaciones disponibles.

Ponga el ratón en el punto deseado para ver el nombre de la estación.

Haga clic para ver las observaciones y los pronósticos meteorológicos.

Para cambiar el mapa : haga clic en los botones verdes con una cruz de color negro para hacer un zoom, en el botón verde con un guión para alejar o en las flechas verdes para mapas adyacentes.


METAR-TAF: